Map

Track Data

SID SEASON NUMBER BASIN SUBBASIN NAME ISO_TIME NATURE LAT LON WMO_WIND WMO_PRES WMO_AGENCY TRACK_TYPE DIST2LAND LANDFALL IFLAG USA_AGENCY USA_ATCF_ID USA_LAT USA_LON USA_RECORD USA_STATUS USA_WIND USA_PRES USA_SSHS USA_R34_NE USA_R34_SE USA_R34_SW USA_R34_NW USA_R50_NE USA_R50_SE USA_R50_SW USA_R50_NW USA_R64_NE USA_R64_SE USA_R64_SW USA_R64_NW USA_POCI USA_ROCI USA_RMW USA_EYE TOKYO_LAT TOKYO_LON TOKYO_GRADE TOKYO_WIND TOKYO_PRES TOKYO_R50_DIR TOKYO_R50_LONG TOKYO_R50_SHORT TOKYO_R30_DIR TOKYO_R30_LONG TOKYO_R30_SHORT TOKYO_LAND CMA_LAT CMA_LON CMA_CAT CMA_WIND CMA_PRES HKO_LAT HKO_LON HKO_CAT HKO_WIND HKO_PRES NEWDELHI_LAT NEWDELHI_LON NEWDELHI_GRADE NEWDELHI_WIND NEWDELHI_PRES NEWDELHI_CI NEWDELHI_DP NEWDELHI_POCI REUNION_LAT REUNION_LON REUNION_TYPE REUNION_WIND REUNION_PRES REUNION_TNUM REUNION_CI REUNION_RMW REUNION_R34_NE REUNION_R34_SE REUNION_R34_SW REUNION_R34_NW REUNION_R50_NE REUNION_R50_SE REUNION_R50_SW REUNION_R50_NW REUNION_R64_NE REUNION_R64_SE REUNION_R64_SW REUNION_R64_NW BOM_LAT BOM_LON BOM_TYPE BOM_WIND BOM_PRES BOM_TNUM BOM_CI BOM_RMW BOM_R34_NE BOM_R34_SE BOM_R34_SW BOM_R34_NW BOM_R50_NE BOM_R50_SE BOM_R50_SW BOM_R50_NW BOM_R64_NE BOM_R64_SE BOM_R64_SW BOM_R64_NW BOM_ROCI BOM_POCI BOM_EYE BOM_POS_METHOD BOM_PRES_METHOD NADI_LAT NADI_LON NADI_CAT NADI_WIND NADI_PRES WELLINGTON_LAT WELLINGTON_LON WELLINGTON_WIND WELLINGTON_PRES DS824_LAT DS824_LON DS824_STAGE DS824_WIND DS824_PRES TD9636_LAT TD9636_LON TD9636_STAGE TD9636_WIND TD9636_PRES TD9635_LAT TD9635_LON TD9635_WIND TD9635_PRES TD9635_ROCI NEUMANN_LAT NEUMANN_LON NEUMANN_CLASS NEUMANN_WIND NEUMANN_PRES MLC_LAT MLC_LON MLC_CLASS MLC_WIND MLC_PRES USA_GUST BOM_GUST BOM_GUST_PER REUNION_GUST REUNION_GUST_PER USA_SEAHGT USA_SEARAD_NE USA_SEARAD_SE USA_SEARAD_SW USA_SEARAD_NW STORM_SPEED STORM_DIR
1982120N11083 1982 27 NI BB NOT_NAMED 1982-04-30 02:00:00 NR 11.4000 82.7000 main 298 284 __________O___ -1 11.4000 82.7000 0 20 7 332
1982120N11083 1982 27 NI BB NOT_NAMED 1982-04-30 03:00:00 NR 11.4985 82.6375 main 284 262 __________P___ -1 11.4985 82.6375 0 20 7 328
1982120N11083 1982 27 NI BB NOT_NAMED 1982-04-30 06:00:00 NR 11.7985 82.4412 main 251 232 O_________P___ jtwc_io IO011982 11.8000 82.4000 20 -1 11.7980 82.4550 0 21 7 330
1982120N11083 1982 27 NI BB NOT_NAMED 1982-04-30 09:00:00 NR 12.1266 82.2676 main 232 206 P_________P___ IO011982 12.1550 82.2202 22 -1 12.1123 82.2914 0 22 7 336
1982120N11083 1982 27 NI BB NOT_NAMED 1982-04-30 12:00:00 NR 12.4731 82.1349 main 206 206 O_________P___ jtwc_io IO011982 12.5000 82.1000 25 -1 12.4529 82.1611 0 24 7 343
1982120N11083 1982 27 NI BB NOT_NAMED 1982-04-30 14:00:00 NR 12.7112 82.0881 main 206 202 P_________O___ IO011982 12.7225 82.0762 25 -1 12.7000 82.1000 1 25 7 350
1982120N11083 1982 27 NI BB NOT_NAMED 1982-04-30 15:00:00 NR 12.8328 82.0780 main 202 195 P_________P___ IO011982 12.8350 82.0774 25 -1 12.8306 82.0787 1 25 8 0
1982120N11083 1982 27 NI BB NOT_NAMED 1982-04-30 18:00:00 NR 13.2211 82.0754 main 195 194 O_________P___ jtwc_io IO011982 13.2000 82.1000 25 -1 13.2421 82.0507 1 26 8 0
1982120N11083 1982 27 NI BB NOT_NAMED 1982-04-30 21:00:00 NR 13.6593 82.0748 main 194 194 P_________P___ IO011982 13.6575 82.0776 27 -1 13.6612 82.0721 1 27 9 2
1982120N11083 1982 27 NI BB NOT_NAMED 1982-05-01 00:00:00 NR 14.0798 82.1182 main 197 197 O_________P___ jtwc_io IO011982 14.1000 82.1000 30 -1 14.0597 82.1364 1 29 8 10
1982120N11083 1982 27 NI BB NOT_NAMED 1982-05-01 02:00:00 NR 14.3173 82.1881 main 209 201 P_________O___ IO011982 14.3346 82.1762 30 -1 14.3000 82.2000 1 30 7 17
1982120N11083 1982 27 NI BB NOT_NAMED 1982-05-01 03:00:00 NR 14.4211 82.2279 main 201 186 P_________P___ IO011982 14.4375 82.2274 30 -1 14.4047 82.2283 1 30 6 25
1982120N11083 1982 27 NI BB NOT_NAMED 1982-05-01 06:00:00 NR 14.6930 82.3694 main 193 178 O_________P___ jtwc_io IO011982 14.7000 82.4000 30 -1 14.6861 82.3388 1 31 6 29
1982120N11083 1982 27 NI BB NOT_NAMED 1982-05-01 09:00:00 NR 14.9192 82.5139 main 178 163 P_________P___ IO011982 14.9075 82.5426 32 -1 14.9309 82.4852 1 32 5 35
1982120N11083 1982 27 NI BB NOT_NAMED 1982-05-01 12:00:00 NR 15.1274 82.6821 main 168 153 O_________P___ jtwc_io IO011982 15.1000 82.7000 35 0 15.1547 82.6642 1 34 6 38
1982120N11083 1982 27 NI BB NOT_NAMED 1982-05-01 14:00:00 NR 15.2794 82.8100 main 153 153 P_________O___ IO011982 15.2587 82.8200 35 0 15.3000 82.8000 2 35 6 38
1982120N11083 1982 27 NI BB NOT_NAMED 1982-05-01 15:00:00 NR 15.3622 82.8750 main 148 134 P_________P___ IO011982 15.3425 82.8850 35 0 15.3820 82.8650 2 35 6 39
1982120N11083 1982 27 NI BB NOT_NAMED 1982-05-01 18:00:00 NR 15.6120 83.0900 main 140 131 O_________P___ jtwc_io IO011982 15.6000 83.1000 35 0 15.6241 83.0801 2 36 7 41
1982120N11083 1982 27 NI BB NOT_NAMED 1982-05-01 21:00:00 NR 15.8601 83.3300 main 132 132 P_________P___ IO011982 15.8650 83.3350 37 0 15.8553 83.3251 2 37 7 46
1982120N11083 1982 27 NI BB NOT_NAMED 1982-05-02 00:00:00 NR 16.0848 83.6000 main 149 149 O_________P___ jtwc_io IO011982 16.1000 83.6000 40 0 16.0696 83.6001 2 39 7 52
1982120N11083 1982 27 NI BB NOT_NAMED 1982-05-02 02:00:00 NR 16.2079 83.7907 main 163 163 P_________O___ IO011982 16.2157 83.7813 41 0 16.2000 83.8000 2 40 7 57
1982120N11083 1982 27 NI BB NOT_NAMED 1982-05-02 03:00:00 NR 16.2637 83.8892 main 163 163 P_________P___ IO011982 16.2649 83.8776 42 0 16.2625 83.9009 2 41 7 63
1982120N11083 1982 27 NI BB NOT_NAMED 1982-05-02 06:00:00 NR 16.4172 84.2122 main 171 169 O_________P___ jtwc_io IO011982 16.4000 84.2000 45 0 16.4345 84.2243 2 46 7 65
1982120N11083 1982 27 NI BB NOT_NAMED 1982-05-02 09:00:00 NR 16.5678 84.5835 main 185 185 P_________P___ IO011982 16.5500 84.5925 50 0 16.5856 84.5744 2 51 8 68
1982120N11083 1982 27 NI BB NOT_NAMED 1982-05-02 12:00:00 NR 16.7096 84.9724 main 202 198 O_________P___ jtwc_io IO011982 16.7000 85.0000 55 0 16.7192 84.9448 2 56 8 69
1982120N11083 1982 27 NI BB NOT_NAMED 1982-05-02 14:00:00 NR 16.8027 85.2179 main 204 204 P_________O___ IO011982 16.8053 85.2358 58 0 16.8000 85.2000 4 60 8 68
1982120N11083 1982 27 NI BB NOT_NAMED 1982-05-02 15:00:00 NR 16.8499 85.3353 main 210 208 P_________P___ IO011982 16.8574 85.3500 60 0 16.8424 85.3205 4 61 7 69
1982120N11083 1982 27 NI BB NOT_NAMED 1982-05-02 18:00:00 NR 16.9797 85.6953 main 223 223 O_________P___ jtwc_io IO011982 17.0000 85.7000 65 1 16.9595 85.6906 4 66 8 72
1982120N11083 1982 27 NI BB NOT_NAMED 1982-05-02 21:00:00 NR 17.0884 86.0827 main 246 246 P_________P___ IO011982 17.1149 86.0850 70 1 17.0619 86.0805 4 71 8 76
1982120N11083 1982 27 NI BB NOT_NAMED 1982-05-03 00:00:00 NR 17.1748 86.4998 main 269 269 O_________P___ jtwc_io IO011982 17.2000 86.5000 75 1 17.1496 86.4996 4 76 8 79
1982120N11083 1982 27 NI BB NOT_NAMED 1982-05-03 02:00:00 NR 17.2206 86.7907 main 293 293 P_________O___ IO011982 17.2411 86.7813 78 1 17.2000 86.8000 4 80 9 81
1982120N11083 1982 27 NI BB NOT_NAMED 1982-05-03 03:00:00 NR 17.2409 86.9411 main 302 302 P_________P___ IO011982 17.2573 86.9276 80 1 17.2245 86.9546 4 81 9 83
1982120N11083 1982 27 NI BB NOT_NAMED 1982-05-03 06:00:00 NR 17.2938 87.4222 main 319 319 O_________P___ jtwc_io IO011982 17.3000 87.4000 85 2 17.2876 87.4444 4 86 10 84
1982120N11083 1982 27 NI BB NOT_NAMED 1982-05-03 09:00:00 NR 17.3474 87.9479 main 340 336 P_________P___ IO011982 17.3574 87.9275 90 2 17.3375 87.9682 4 91 10 85
1982120N11083 1982 27 NI BB NOT_NAMED 1982-05-03 12:00:00 NR 17.3887 88.5099 main 365 365 O_________P___ jtwc_io IO011982 17.4000 88.5000 95 2 17.3773 88.5199 4 96 11 87
1982120N11083 1982 27 NI BB NOT_NAMED 1982-05-03 14:00:00 NR 17.4012 88.8961 main 392 392 P_________O___ IO011982 17.4024 88.8922 98 3 17.4000 88.9000 4 100 11 88
1982120N11083 1982 27 NI BB NOT_NAMED 1982-05-03 15:00:00 NR 17.4068 89.0845 main 406 406 P_________P___ IO011982 17.3999 89.0926 100 3 17.4137 89.0765 4 101 11 88
1982120N11083 1982 27 NI BB NOT_NAMED 1982-05-03 18:00:00 NR 17.4252 89.6583 main 452 405 O_________P___ jtwc_io IO011982 17.4000 89.7000 105 3 17.4504 89.6167 4 106 11 87
1982120N11083 1982 27 NI BB NOT_NAMED 1982-05-03 21:00:00 NR 17.4642 90.2350 main 405 349 P_________P___ IO011982 17.4496 90.2774 110 3 17.4788 90.1926 4 111 12 86
1982120N11083 1982 27 NI BB NOT_NAMED 1982-05-04 00:00:00 NR 17.4980 90.8647 main 340 303 O_________P___ jtwc_io IO011982 17.5000 90.9000 115 4 17.4961 90.8294 4 116 13 88
1982120N11083 1982 27 NI BB NOT_NAMED 1982-05-04 02:00:00 NR 17.5065 91.3273 main 303 286 P_________O___ IO011982 17.5130 91.3546 116 4 17.5000 91.3000 4 120 14 90
1982120N11083 1982 27 NI BB NOT_NAMED 1982-05-04 03:00:00 NR 17.5037 91.5849 main 278 215 P_________P___ IO011982 17.5146 91.5975 117 4 17.4929 91.5723 4 117 16 92
1982120N11083 1982 27 NI BB NOT_NAMED 1982-05-04 06:00:00 NR 17.4788 92.4284 main 215 129 O_________P___ jtwc_io IO011982 17.5000 92.4000 120 4 17.4577 92.4567 4 111 17 92
1982120N11083 1982 27 NI BB NOT_NAMED 1982-05-04 09:00:00 NR 17.4303 93.3697 main 118 38 P_________P___ IO011982 17.4429 93.3578 110 3 17.4178 93.3816 4 105 18 93
1982120N11083 1982 27 NI BB NOT_NAMED 1982-05-04 12:00:00 NR 17.3974 94.2842 main 30 0 O_________P___ jtwc_io IO011982 17.4000 94.3000 100 3 17.3947 94.2684 4 99 17 91
1982120N11083 1982 27 NI BB NOT_NAMED 1982-05-04 14:00:00 NR 17.4058 94.8139 main 0 0 P_________O___ IO011982 17.4117 94.8278 93 2 17.4000 94.8000 4 95 15 88
1982120N11083 1982 27 NI BB NOT_NAMED 1982-05-04 15:00:00 NR 17.4216 95.0543 main 0 0 P_________P___ IO011982 17.4271 95.0674 90 2 17.4160 95.0413 4 91 13 84
1982120N11083 1982 27 NI BB NOT_NAMED 1982-05-04 18:00:00 NR 17.4962 95.6982 main 0 0 O_________P___ jtwc_io IO011982 17.5000 95.7000 80 1 17.4925 95.6965 4 80 12 81
1982120N11083 1982 27 NI BB NOT_NAMED 1982-05-04 21:00:00 NR 17.5957 96.2520 main 0 0 P_________P___ IO011982 17.5923 96.2600 67 1 17.5991 96.2440 4 68 10 77
1982120N11083 1982 27 NI BB NOT_NAMED 1982-05-05 00:00:00 NR 17.7099 96.6888 main 0 0 O_________P___ jtwc_io IO011982 17.7000 96.7000 55 0 17.7198 96.6776 4 57 8 74
1982120N11083 1982 27 NI BB NOT_NAMED 1982-05-05 02:00:00 NR 17.7833 96.9294 main 0 0 P_________O___ IO011982 17.7666 96.9588 49 0 17.8000 96.9000 4 50 7 71
1982120N11083 1982 27 NI BB NOT_NAMED 1982-05-05 03:00:00 NR 17.8191 97.0291 main 0 0 P_________P___ IO011982 17.7999 97.0675 47 0 17.8383 96.9907 4 48 5 64
1982120N11083 1982 27 NI BB NOT_NAMED 1982-05-05 06:00:00 NR 17.9262 97.2375 main 0 0 O_________P___ jtwc_io IO011982 17.9000 97.3000 40 0 17.9459 97.1907 4 45 4 55
1982120N11083 1982 27 NI BB NOT_NAMED 1982-05-05 09:00:00 NR 18.0270 97.3402 main 0 0 P_________P___ IO011982 18.0000 97.3900 37 0 18.0450 97.3070 4 41 2 34
1982120N11083 1982 27 NI BB NOT_NAMED 1982-05-05 12:00:00 NR 18.1259 97.3806 main 0 0 O_________P___ jtwc_io IO011982 18.1000 97.4000 35 0 18.1388 97.3710 4 37 2 17
1982120N11083 1982 27 NI BB NOT_NAMED 1982-05-05 14:00:00 NR 18.2000 97.4000 main 0 __________O___ IO011982 -1 18.2000 97.4000 6 35 2 20

About IBTrACS Database

This database is a web-friendly format of International Best Track Archive for Climate Stewardship (IBTrACS), a global best track data archive curated by NOAA dating back to 1842.

Updated: 2021-10-27